createdAt,value
2023-08-17T00:05:28.366Z,100262.06
2023-08-17T00:15:31.198Z,100259.34
2023-08-17T00:25:35.400Z,100248.16
2023-08-17T00:35:38.238Z,100252.59
2023-08-17T00:45:42.953Z,100250.78
2023-08-17T00:55:45.908Z,100238.63
2023-08-17T01:05:50.127Z,100241.31
2023-08-17T01:15:55.798Z,100239.47
2023-08-17T01:26:00.093Z,100234.94
2023-08-17T01:36:07.943Z,100226.94
2023-08-17T01:46:12.130Z,100218.53
2023-08-17T01:56:15.457Z,100210.56
2023-08-17T02:06:19.692Z,100211.84
2023-08-17T02:16:22.600Z,100208.09
2023-08-17T02:26:26.910Z,100200.19
2023-08-17T02:36:30.940Z,100187.81
2023-08-17T02:46:35.251Z,100185.94
2023-08-17T02:56:38.094Z,100187.81
2023-08-17T03:06:43.422Z,100174.25
2023-08-17T03:16:46.320Z,100168.75
2023-08-17T03:26:50.525Z,100185.16
2023-08-17T03:36:53.337Z,100183.63
2023-08-17T03:47:02.300Z,100198.84
2023-08-17T03:57:05.394Z,100195.84
2023-08-17T04:07:09.617Z,100204.31
2023-08-17T04:17:13.438Z,100220.56
2023-08-17T04:27:24.034Z,100211.09
2023-08-17T04:37:29.316Z,100219.31
2023-08-17T04:47:33.630Z,100230.38
2023-08-17T04:57:36.552Z,100241.91
2023-08-17T05:07:41.400Z,100250.28
2023-08-17T05:17:44.273Z,100246.25
2023-08-17T05:27:52.640Z,100248.13
2023-08-17T05:37:55.548Z,100247.31
2023-08-17T05:47:59.848Z,100253.66
2023-08-17T05:58:02.770Z,100263.81
2023-08-17T06:08:07.681Z,100278.22
2023-08-17T06:18:10.645Z,100251.09
2023-08-17T06:28:14.915Z,100270.25
2023-08-17T06:38:17.880Z,100264.66
2023-08-17T06:48:22.067Z,100276.78
2023-08-17T06:58:24.894Z,100268.47
2023-08-17T07:08:29.204Z,100270.75
2023-08-17T07:18:32.141Z,100286.91
2023-08-17T07:28:36.343Z,100293.75
2023-08-17T07:38:39.221Z,100287.53
2023-08-17T07:48:43.415Z,100300.00
2023-08-17T07:58:46.236Z,100292.34
2023-08-17T08:08:50.446Z,100294.41
2023-08-17T08:18:54.115Z,100292.50
2023-08-17T08:28:58.467Z,100296.88
2023-08-17T08:39:02.315Z,100288.97
2023-08-17T08:49:08.794Z,100308.03
2023-08-17T08:59:12.925Z,100302.97
2023-08-17T09:09:18.730Z,100286.72
2023-08-17T09:19:22.421Z,100294.25
2023-08-17T09:29:28.031Z,100294.56
2023-08-17T09:39:31.067Z,100278.53
2023-08-17T09:49:36.439Z,100275.44
2023-08-17T09:59:40.131Z,100268.44
2023-08-17T10:09:50.063Z,100276.16
2023-08-17T10:19:55.367Z,100275.09
2023-08-17T10:30:00.426Z,100292.41
2023-08-17T10:40:04.643Z,100275.59
2023-08-17T10:50:23.061Z,100272.38
2023-08-17T11:00:28.148Z,100271.88
2023-08-17T11:10:33.112Z,100264.63
2023-08-17T11:20:36.305Z,100260.75
2023-08-17T11:30:41.000Z,100247.59
2023-08-17T11:40:44.083Z,100246.41
2023-08-17T11:50:48.398Z,100230.00
2023-08-17T12:00:51.667Z,100231.00
2023-08-17T12:10:56.137Z,100230.63
2023-08-17T12:20:59.105Z,100232.59
2023-08-17T12:31:04.780Z,100230.72
2023-08-17T12:41:07.768Z,100238.38
2023-08-17T12:51:12.024Z,100241.03
2023-08-17T13:01:15.326Z,100236.97
2023-08-17T13:11:19.901Z,100223.25
2023-08-17T13:21:22.807Z,100206.34
2023-08-17T13:31:27.314Z,100200.00
2023-08-17T13:41:30.329Z,100185.94
2023-08-17T13:51:34.712Z,100156.34
2023-08-17T14:01:37.633Z,100142.44
2023-08-17T14:11:41.966Z,100126.69
2023-08-17T14:21:44.913Z,100130.16
2023-08-17T14:31:49.251Z,100119.00
2023-08-17T14:41:53.748Z,100104.25
2023-08-17T14:51:58.063Z,100072.94
2023-08-17T15:02:03.407Z,100051.09
2023-08-17T15:12:08.122Z,100023.91
2023-08-17T15:22:15.333Z,100038.84
2023-08-17T15:32:20.089Z,100048.59
2023-08-17T15:42:23.056Z,100038.00
2023-08-17T15:52:27.317Z,100031.59
2023-08-17T16:02:30.310Z,100044.31
2023-08-17T16:12:34.880Z,100063.50
2023-08-17T16:22:37.856Z,100060.03
2023-08-17T16:32:42.272Z,100078.91
2023-08-17T16:42:46.659Z,100103.13
2023-08-17T16:52:51.885Z,100103.16
2023-08-17T17:02:54.898Z,100115.59
2023-08-17T17:12:59.309Z,100125.88
2023-08-17T17:23:02.331Z,100103.41
2023-08-17T17:33:08.645Z,100084.75
2023-08-17T17:43:13.404Z,100076.91
2023-08-17T17:53:17.679Z,100069.66
2023-08-17T18:03:20.611Z,100075.63
2023-08-17T18:13:24.900Z,100073.53
2023-08-17T18:23:27.879Z,100083.88
2023-08-17T18:33:34.108Z,100102.56
2023-08-17T18:43:37.139Z,100093.34
2023-08-17T18:53:41.379Z,100106.66
2023-08-17T19:03:44.428Z,100117.31
2023-08-17T19:13:48.862Z,100130.53
2023-08-17T19:23:52.161Z,100130.81
2023-08-17T19:33:56.437Z,100125.19
2023-08-17T19:43:59.327Z,100125.72
2023-08-17T19:54:07.295Z,100130.94
2023-08-17T20:04:14.680Z,100143.41
2023-08-17T20:14:21.927Z,100138.75
2023-08-17T20:24:26.253Z,100135.56
2023-08-17T20:34:30.525Z,100143.50
2023-08-17T20:44:33.412Z,100120.25
2023-08-17T20:54:38.126Z,100115.19
2023-08-17T21:04:41.246Z,100121.38
2023-08-17T21:14:48.271Z,100117.41
2023-08-17T21:24:51.174Z,100114.63
2023-08-17T21:34:55.721Z,100106.75
2023-08-17T21:44:59.020Z,100095.63
2023-08-17T21:55:03.303Z,100090.00
2023-08-17T22:05:06.798Z,100084.97
2023-08-17T22:15:11.344Z,100079.41
2023-08-17T22:25:14.467Z,100073.25
2023-08-17T22:35:21.781Z,100066.91
2023-08-17T22:45:27.557Z,100084.31
2023-08-17T22:55:31.937Z,100078.59
2023-08-17T23:05:44.056Z,100074.78
2023-08-17T23:15:49.017Z,100076.59
2023-08-17T23:25:52.804Z,100072.13
2023-08-17T23:35:57.271Z,100081.13
2023-08-17T23:46:00.376Z,100088.53
2023-08-17T23:56:04.948Z,100085.34
